sensor_id;sensor_type;location;lat;lon;timestamp;pressure;altitude;pressure_sealevel;temperature;humidity
81181;BME280;70650;51.408;7.132;2024-03-07T00:00:35;101215.72;;;4.18;93.52
81181;BME280;70650;51.408;7.132;2024-03-07T00:03:01;101219.13;;;4.25;93.50
81181;BME280;70650;51.408;7.132;2024-03-07T00:05:27;101219.94;;;4.29;93.04
81181;BME280;70650;51.408;7.132;2024-03-07T00:07:53;101211.28;;;4.27;92.76
81181;BME280;70650;51.408;7.132;2024-03-07T00:10:21;101206.34;;;4.02;93.31
81181;BME280;70650;51.408;7.132;2024-03-07T00:12:47;101213.16;;;4.15;93.10
81181;BME280;70650;51.408;7.132;2024-03-07T00:15:13;101216.69;;;4.13;92.44
81181;BME280;70650;51.408;7.132;2024-03-07T00:17:39;101215.38;;;3.81;92.76
81181;BME280;70650;51.408;7.132;2024-03-07T00:20:08;101218.63;;;3.97;92.95
81181;BME280;70650;51.408;7.132;2024-03-07T00:22:37;101219.88;;;3.70;94.23
81181;BME280;70650;51.408;7.132;2024-03-07T00:25:04;101222.22;;;3.91;94.31
81181;BME280;70650;51.408;7.132;2024-03-07T00:27:31;101220.31;;;4.03;94.10
81181;BME280;70650;51.408;7.132;2024-03-07T00:29:56;101214.06;;;4.13;93.60
81181;BME280;70650;51.408;7.132;2024-03-07T00:32:22;101221.03;;;4.14;92.75
81181;BME280;70650;51.408;7.132;2024-03-07T00:34:49;101223.59;;;4.18;92.78
81181;BME280;70650;51.408;7.132;2024-03-07T00:37:19;101219.19;;;4.22;92.47
81181;BME280;70650;51.408;7.132;2024-03-07T00:39:47;101219.00;;;4.34;92.88
81181;BME280;70650;51.408;7.132;2024-03-07T00:42:12;101226.06;;;4.29;91.49
81181;BME280;70650;51.408;7.132;2024-03-07T00:44:38;101227.00;;;4.23;91.19
81181;BME280;70650;51.408;7.132;2024-03-07T00:47:03;101231.38;;;4.23;91.72
81181;BME280;70650;51.408;7.132;2024-03-07T00:49:30;101222.81;;;4.12;92.37
81181;BME280;70650;51.408;7.132;2024-03-07T00:51:56;101227.94;;;4.19;92.42
81181;BME280;70650;51.408;7.132;2024-03-07T00:54:21;101228.63;;;4.31;92.22
81181;BME280;70650;51.408;7.132;2024-03-07T00:56:47;101219.34;;;4.10;91.09
81181;BME280;70650;51.408;7.132;2024-03-07T00:59:15;101225.31;;;4.21;92.09
81181;BME280;70650;51.408;7.132;2024-03-07T01:01:41;101216.78;;;4.05;91.87
81181;BME280;70650;51.408;7.132;2024-03-07T01:04:07;101220.56;;;3.83;92.79
81181;BME280;70650;51.408;7.132;2024-03-07T01:06:36;101223.91;;;3.94;93.70
81181;BME280;70650;51.408;7.132;2024-03-07T01:09:02;101211.53;;;4.07;93.60
81181;BME280;70650;51.408;7.132;2024-03-07T01:11:27;101207.47;;;3.84;92.36
81181;BME280;70650;51.408;7.132;2024-03-07T01:13:53;101211.69;;;3.94;93.79
81181;BME280;70650;51.408;7.132;2024-03-07T01:16:18;101212.44;;;4.03;93.22
81181;BME280;70650;51.408;7.132;2024-03-07T01:18:44;101209.88;;;3.99;93.37
81181;BME280;70650;51.408;7.132;2024-03-07T01:21:09;101216.75;;;4.08;93.64
81181;BME280;70650;51.408;7.132;2024-03-07T01:23:35;101216.84;;;4.01;93.52
81181;BME280;70650;51.408;7.132;2024-03-07T01:26:00;101213.19;;;4.12;94.09
81181;BME280;70650;51.408;7.132;2024-03-07T01:28:26;101217.59;;;4.10;94.42
81181;BME280;70650;51.408;7.132;2024-03-07T01:30:55;101216.66;;;4.16;93.86
81181;BME280;70650;51.408;7.132;2024-03-07T01:33:20;101214.78;;;4.25;94.48
81181;BME280;70650;51.408;7.132;2024-03-07T01:35:45;101209.59;;;4.21;93.42
81181;BME280;70650;51.408;7.132;2024-03-07T01:38:11;101204.59;;;4.03;95.08
81181;BME280;70650;51.408;7.132;2024-03-07T01:40:39;101207.06;;;4.13;95.93
81181;BME280;70650;51.408;7.132;2024-03-07T01:43:04;101212.13;;;4.27;95.30
81181;BME280;70650;51.408;7.132;2024-03-07T01:45:30;101199.75;;;4.38;95.25
81181;BME280;70650;51.408;7.132;2024-03-07T01:47:56;101200.44;;;4.49;95.06
81181;BME280;70650;51.408;7.132;2024-03-07T01:50:21;101199.53;;;4.52;94.78
81181;BME280;70650;51.408;7.132;2024-03-07T01:52:46;101196.84;;;4.57;94.81
81181;BME280;70650;51.408;7.132;2024-03-07T01:55:18;101196.97;;;4.47;95.18
81181;BME280;70650;51.408;7.132;2024-03-07T01:57:44;101198.91;;;4.35;95.58
81181;BME280;70650;51.408;7.132;2024-03-07T02:00:11;101188.44;;;4.35;96.40
81181;BME280;70650;51.408;7.132;2024-03-07T02:02:36;101196.19;;;4.44;96.89
81181;BME280;70650;51.408;7.132;2024-03-07T02:05:02;101193.63;;;4.39;96.98
81181;BME280;70650;51.408;7.132;2024-03-07T02:07:27;101182.22;;;4.42;96.74
81181;BME280;70650;51.408;7.132;2024-03-07T02:10:03;101191.13;;;4.32;96.75
81181;BME280;70650;51.408;7.132;2024-03-07T02:12:29;101185.13;;;4.23;97.19
81181;BME280;70650;51.408;7.132;2024-03-07T02:14:56;101190.50;;;4.14;97.73
81181;BME280;70650;51.408;7.132;2024-03-07T02:17:23;101187.84;;;4.17;98.08
81181;BME280;70650;51.408;7.132;2024-03-07T02:19:48;101179.97;;;4.17;98.40
81181;BME280;70650;51.408;7.132;2024-03-07T02:22:13;101186.88;;;4.23;98.45
81181;BME280;70650;51.408;7.132;2024-03-07T02:24:39;101172.91;;;4.24;98.60
81181;BME280;70650;51.408;7.132;2024-03-07T02:27:04;101172.91;;;4.24;98.63
81181;BME280;70650;51.408;7.132;2024-03-07T02:29:29;101187.78;;;4.22;98.32
81181;BME280;70650;51.408;7.132;2024-03-07T02:31:55;101175.69;;;4.12;98.08
81181;BME280;70650;51.408;7.132;2024-03-07T02:34:22;101187.06;;;4.11;98.58
81181;BME280;70650;51.408;7.132;2024-03-07T02:36:47;101185.34;;;4.10;99.39
81181;BME280;70650;51.408;7.132;2024-03-07T02:39:13;101171.25;;;4.17;99.44
81181;BME280;70650;51.408;7.132;2024-03-07T02:41:38;101178.19;;;4.21;99.20
81181;BME280;70650;51.408;7.132;2024-03-07T02:44:03;101174.69;;;4.22;99.21
81181;BME280;70650;51.408;7.132;2024-03-07T02:46:29;101173.91;;;4.14;99.00
81181;BME280;70650;51.408;7.132;2024-03-07T02:48:54;101176.63;;;4.08;99.17
81181;BME280;70650;51.408;7.132;2024-03-07T02:51:19;101173.34;;;3.93;99.16
81181;BME280;70650;51.408;7.132;2024-03-07T02:53:45;101177.78;;;3.88;99.57
81181;BME280;70650;51.408;7.132;2024-03-07T02:56:10;101171.66;;;3.89;99.79
81181;BME280;70650;51.408;7.132;2024-03-07T02:58:36;101169.84;;;3.94;100.00
81181;BME280;70650;51.408;7.132;2024-03-07T03:01:02;101167.13;;;4.01;100.00
81181;BME280;70650;51.408;7.132;2024-03-07T03:03:29;101164.59;;;3.94;100.00
81181;BME280;70650;51.408;7.132;2024-03-07T03:05:57;101163.78;;;3.89;99.97
81181;BME280;70650;51.408;7.132;2024-03-07T03:08:22;101161.19;;;3.89;100.00
81181;BME280;70650;51.408;7.132;2024-03-07T03:10:48;101156.06;;;3.82;100.00
81181;BME280;70650;51.408;7.132;2024-03-07T03:13:16;101149.19;;;3.73;99.91
81181;BME280;70650;51.408;7.132;2024-03-07T03:15:41;101150.09;;;3.70;100.00
81181;BME280;70650;51.408;7.132;2024-03-07T03:18:07;101148.50;;;3.57;100.00
81181;BME280;70650;51.408;7.132;2024-03-07T03:20:32;101144.16;;;3.56;100.00
81181;BME280;70650;51.408;7.132;2024-03-07T03:23:06;101145.19;;;3.46;100.00
81181;BME280;70650;51.408;7.132;2024-03-07T03:25:36;101139.16;;;3.41;100.00
81181;BME280;70650;51.408;7.132;2024-03-07T03:28:04;101142.63;;;3.40;100.00
81181;BME280;70650;51.408;7.132;2024-03-07T03:30:30;101145.16;;;3.48;100.00
81181;BME280;70650;51.408;7.132;2024-03-07T03:32:55;101146.75;;;3.61;100.00
81181;BME280;70650;51.408;7.132;2024-03-07T03:35:21;101144.97;;;3.64;100.00
81181;BME280;70650;51.408;7.132;2024-03-07T03:37:46;101138.88;;;3.64;100.00
81181;BME280;70650;51.408;7.132;2024-03-07T03:40:12;101136.97;;;3.75;100.00
81181;BME280;70650;51.408;7.132;2024-03-07T03:42:42;101131.59;;;3.84;100.00
81181;BME280;70650;51.408;7.132;2024-03-07T03:45:09;101138.63;;;3.79;100.00
81181;BME280;70650;51.408;7.132;2024-03-07T03:47:39;101135.19;;;3.77;100.00
81181;BME280;70650;51.408;7.132;2024-03-07T03:50:05;101134.28;;;3.80;99.89
81181;BME280;70650;51.408;7.132;2024-03-07T03:52:32;101137.88;;;3.71;99.57
81181;BME280;70650;51.408;7.132;2024-03-07T03:55:01;101130.88;;;3.73;99.88
81181;BME280;70650;51.408;7.132;2024-03-07T03:57:28;101132.53;;;3.82;99.76
81181;BME280;70650;51.408;7.132;2024-03-07T03:59:54;101125.44;;;3.88;99.74
81181;BME280;70650;51.408;7.132;2024-03-07T04:02:20;101129.94;;;3.80;99.33
81181;BME280;70650;51.408;7.132;2024-03-07T04:04:46;101133.47;;;3.76;99.06
81181;BME280;70650;51.408;7.132;2024-03-07T04:07:11;101133.47;;;3.76;99.35
81181;BME280;70650;51.408;7.132;2024-03-07T04:09:41;101133.28;;;3.88;99.62
81181;BME280;70650;51.408;7.132;2024-03-07T04:12:07;101137.50;;;3.98;99.33
81181;BME280;70650;51.408;7.132;2024-03-07T04:14:44;101139.34;;;3.92;98.45
81181;BME280;70650;51.408;7.132;2024-03-07T04:17:10;101135.88;;;3.91;98.41
81181;BME280;70650;51.408;7.132;2024-03-07T04:19:40;101129.84;;;3.86;98.27
81181;BME280;70650;51.408;7.132;2024-03-07T04:22:05;101132.56;;;3.77;97.99
81181;BME280;70650;51.408;7.132;2024-03-07T04:24:31;101129.25;;;3.66;98.45
81181;BME280;70650;51.408;7.132;2024-03-07T04:27:00;101134.50;;;3.64;98.85
81181;BME280;70650;51.408;7.132;2024-03-07T04:29:26;101133.59;;;3.65;98.83
81181;BME280;70650;51.408;7.132;2024-03-07T04:31:52;101127.44;;;3.71;98.28
81181;BME280;70650;51.408;7.132;2024-03-07T04:34:18;101123.91;;;3.72;98.50
81181;BME280;70650;51.408;7.132;2024-03-07T04:36:43;101123.81;;;3.80;98.99
81181;BME280;70650;51.408;7.132;2024-03-07T04:39:09;101123.81;;;3.80;98.75
81181;BME280;70650;51.408;7.132;2024-03-07T04:41:47;101120.28;;;3.84;98.55
81181;BME280;70650;51.408;7.132;2024-03-07T04:44:13;101118.56;;;3.80;98.15
81181;BME280;70650;51.408;7.132;2024-03-07T04:46:38;101121.22;;;3.78;98.53
81181;BME280;70650;51.408;7.132;2024-03-07T04:49:07;101120.34;;;3.81;98.44
81181;BME280;70650;51.408;7.132;2024-03-07T04:51:33;101120.31;;;3.82;98.17
81181;BME280;70650;51.408;7.132;2024-03-07T04:53:58;101119.59;;;3.68;97.37
81181;BME280;70650;51.408;7.132;2024-03-07T04:56:23;101125.69;;;3.71;97.82
81181;BME280;70650;51.408;7.132;2024-03-07T04:58:49;101115.38;;;3.59;97.53
81181;BME280;70650;51.408;7.132;2024-03-07T05:01:15;101117.19;;;3.54;98.42
81181;BME280;70650;51.408;7.132;2024-03-07T05:03:40;101120.72;;;3.50;98.30
81181;BME280;70650;51.408;7.132;2024-03-07T05:06:07;101120.72;;;3.50;98.63
81181;BME280;70650;51.408;7.132;2024-03-07T05:08:33;101121.78;;;3.37;97.83
81181;BME280;70650;51.408;7.132;2024-03-07T05:10:58;101125.44;;;3.21;98.38
81181;BME280;70650;51.408;7.132;2024-03-07T05:13:23;101121.88;;;3.29;98.95
81181;BME280;70650;51.408;7.132;2024-03-07T05:15:49;101127.03;;;3.32;99.08
81181;BME280;70650;51.408;7.132;2024-03-07T05:18:17;101120.16;;;3.25;98.79
81181;BME280;70650;51.408;7.132;2024-03-07T05:20:42;101126.50;;;3.04;98.79
81181;BME280;70650;51.408;7.132;2024-03-07T05:23:07;101121.25;;;3.04;98.97
81181;BME280;70650;51.408;7.132;2024-03-07T05:25:35;101125.56;;;3.10;99.35
81181;BME280;70650;51.408;7.132;2024-03-07T05:28:01;101126.50;;;3.04;99.05
81181;BME280;70650;51.408;7.132;2024-03-07T05:30:27;101122.19;;;3.02;99.30
81181;BME280;70650;51.408;7.132;2024-03-07T05:32:53;101130.81;;;3.05;99.42
81181;BME280;70650;51.408;7.132;2024-03-07T05:35:19;101131.84;;;2.92;99.04
81181;BME280;70650;51.408;7.132;2024-03-07T05:37:44;101123.16;;;2.91;99.19
81181;BME280;70650;51.408;7.132;2024-03-07T05:40:12;101130.91;;;2.98;99.49
81181;BME280;70650;51.408;7.132;2024-03-07T05:42:37;101128.28;;;3.01;99.35
81181;BME280;70650;51.408;7.132;2024-03-07T05:45:03;101118.69;;;3.03;98.98
81181;BME280;70650;51.408;7.132;2024-03-07T05:47:32;101127.41;;;3.02;98.98
81181;BME280;70650;51.408;7.132;2024-03-07T05:49:58;101122.31;;;2.89;98.28
81181;BME280;70650;51.408;7.132;2024-03-07T05:52:23;101125.88;;;2.78;98.13
81181;BME280;70650;51.408;7.132;2024-03-07T05:54:48;101126.72;;;2.81;98.71
81181;BME280;70650;51.408;7.132;2024-03-07T05:57:14;101124.19;;;2.75;98.40
81181;BME280;70650;51.408;7.132;2024-03-07T05:59:39;101127.72;;;2.68;98.34
81181;BME280;70650;51.408;7.132;2024-03-07T06:02:04;101123.41;;;2.64;98.63
81181;BME280;70650;51.408;7.132;2024-03-07T06:04:30;101131.22;;;2.65;98.37
81181;BME280;70650;51.408;7.132;2024-03-07T06:06:57;101126.88;;;2.66;98.59
81181;BME280;70650;51.408;7.132;2024-03-07T06:09:22;101132.91;;;2.74;98.69
81181;BME280;70650;51.408;7.132;2024-03-07T06:11:48;101132.84;;;2.77;98.50
81181;BME280;70650;51.408;7.132;2024-03-07T06:14:13;101128.56;;;2.73;98.01
81181;BME280;70650;51.408;7.132;2024-03-07T06:16:39;101136.19;;;2.93;98.91
81181;BME280;70650;51.408;7.132;2024-03-07T06:19:06;101127.50;;;2.91;97.89
81181;BME280;70650;51.408;7.132;2024-03-07T06:21:33;101131.78;;;2.98;98.06
81181;BME280;70650;51.408;7.132;2024-03-07T06:23:59;101137.72;;;3.14;97.95
81181;BME280;70650;51.408;7.132;2024-03-07T06:26:36;101133.41;;;3.08;97.47
81181;BME280;70650;51.408;7.132;2024-03-07T06:29:25;101136.06;;;3.04;96.84
81181;BME280;70650;51.408;7.132;2024-03-07T06:31:51;101135.38;;;2.86;97.08
81181;BME280;70650;51.408;7.132;2024-03-07T06:34:19;101139.72;;;2.87;97.01
81181;BME280;70650;51.408;7.132;2024-03-07T06:36:44;101128.53;;;2.75;96.70
81181;BME280;70650;51.408;7.132;2024-03-07T06:39:09;101141.56;;;2.79;97.04
81181;BME280;70650;51.408;7.132;2024-03-07T06:41:39;101133.97;;;2.49;97.01
81181;BME280;70650;51.408;7.132;2024-03-07T06:44:04;101134.91;;;2.43;98.02
81181;BME280;70650;51.408;7.132;2024-03-07T06:46:30;101135.81;;;2.37;97.99
81181;BME280;70650;51.408;7.132;2024-03-07T06:48:56;101137.41;;;2.54;98.72
81181;BME280;70650;51.408;7.132;2024-03-07T06:51:22;101136.53;;;2.55;98.53
81181;BME280;70650;51.408;7.132;2024-03-07T06:53:48;101138.31;;;2.53;98.43
81181;BME280;70650;51.408;7.132;2024-03-07T06:56:14;101141.81;;;2.50;98.10
81181;BME280;70650;51.408;7.132;2024-03-07T06:58:40;101128.75;;;2.49;98.45
81181;BME280;70650;51.408;7.132;2024-03-07T07:01:07;101139.34;;;2.32;98.33
81181;BME280;70650;51.408;7.132;2024-03-07T07:03:36;101139.28;;;2.41;99.11
81181;BME280;70650;51.408;7.132;2024-03-07T07:06:02;101136.56;;;2.52;98.69
81181;BME280;70650;51.408;7.132;2024-03-07T07:08:27;101136.56;;;2.53;98.30
81181;BME280;70650;51.408;7.132;2024-03-07T07:10:55;101142.69;;;2.51;97.66
81181;BME280;70650;51.408;7.132;2024-03-07T07:13:21;101136.53;;;2.55;98.06
81181;BME280;70650;51.408;7.132;2024-03-07T07:15:46;101140.97;;;2.50;97.29
81181;BME280;70650;51.408;7.132;2024-03-07T07:18:12;101147.09;;;2.44;97.58
81181;BME280;70650;51.408;7.132;2024-03-07T07:20:38;101143.72;;;2.28;97.36
81181;BME280;70650;51.408;7.132;2024-03-07T07:23:04;101143.72;;;2.30;97.53
81181;BME280;70650;51.408;7.132;2024-03-07T07:25:31;101151.56;;;2.28;97.93
81181;BME280;70650;51.408;7.132;2024-03-07T07:27:56;101149.78;;;2.30;97.72
81181;BME280;70650;51.408;7.132;2024-03-07T07:30:23;101147.19;;;2.29;98.06
81181;BME280;70650;51.408;7.132;2024-03-07T07:32:49;101150.47;;;2.54;98.19
81181;BME280;70650;51.408;7.132;2024-03-07T07:35:14;101146.94;;;2.61;97.68
81181;BME280;70650;51.408;7.132;2024-03-07T07:37:41;101152.41;;;2.30;97.24
81181;BME280;70650;51.408;7.132;2024-03-07T07:40:07;101142.88;;;2.25;98.14
81181;BME280;70650;51.408;7.132;2024-03-07T07:42:42;101141.16;;;2.24;98.38
81181;BME280;70650;51.408;7.132;2024-03-07T07:45:09;101133.34;;;2.19;98.49
81181;BME280;70650;51.408;7.132;2024-03-07T07:47:42;101132.47;;;2.22;98.41
81181;BME280;70650;51.408;7.132;2024-03-07T07:50:11;101131.56;;;2.21;98.78
81181;BME280;70650;51.408;7.132;2024-03-07T07:52:44;101141.16;;;2.22;98.64
81181;BME280;70650;51.408;7.132;2024-03-07T07:55:11;101130.72;;;2.22;98.54
81181;BME280;70650;51.408;7.132;2024-03-07T07:57:45;101135.09;;;2.22;98.28
81181;BME280;70650;51.408;7.132;2024-03-07T08:00:12;101128.94;;;2.27;98.03
81181;BME280;70650;51.408;7.132;2024-03-07T08:02:50;101131.50;;;2.33;98.31
81181;BME280;70650;51.408;7.132;2024-03-07T08:05:16;101132.28;;;2.43;98.15
81181;BME280;70650;51.408;7.132;2024-03-07T08:07:44;101141.75;;;2.55;97.87
81181;BME280;70650;51.408;7.132;2024-03-07T08:10:10;101140.88;;;2.57;97.46
81181;BME280;70650;51.408;7.132;2024-03-07T08:12:35;101127.72;;;2.70;97.30
81181;BME280;70650;51.408;7.132;2024-03-07T08:15:03;101130.13;;;2.91;97.48
81181;BME280;70650;51.408;7.132;2024-03-07T08:17:28;101127.28;;;3.11;96.97
81181;BME280;70650;51.408;7.132;2024-03-07T08:19:54;101115.84;;;3.21;95.94
81181;BME280;70650;51.408;7.132;2024-03-07T08:22:19;101120.00;;;3.40;95.55
81181;BME280;70650;51.408;7.132;2024-03-07T08:24:44;101113.81;;;3.44;93.70
81181;BME280;70650;51.408;7.132;2024-03-07T08:27:10;101113.75;;;3.52;93.49
81181;BME280;70650;51.408;7.132;2024-03-07T08:29:36;101111.03;;;3.57;92.35
81181;BME280;70650;51.408;7.132;2024-03-07T08:32:01;101114.44;;;3.65;91.94
81181;BME280;70650;51.408;7.132;2024-03-07T08:34:28;101107.34;;;3.73;91.03
81181;BME280;70650;51.408;7.132;2024-03-07T08:36:53;101100.88;;;3.97;91.57
81181;BME280;70650;51.408;7.132;2024-03-07T08:39:18;101099.16;;;3.97;91.00
81181;BME280;70650;51.408;7.132;2024-03-07T08:41:44;101110.22;;;4.15;90.36
81181;BME280;70650;51.408;7.132;2024-03-07T08:44:11;101111.91;;;4.20;89.62
81181;BME280;70650;51.408;7.132;2024-03-07T08:46:38;101116.91;;;4.34;89.10
81181;BME280;70650;51.408;7.132;2024-03-07T08:49:03;101103.66;;;4.43;88.64
81181;BME280;70650;51.408;7.132;2024-03-07T08:51:30;101105.03;;;4.66;87.78
81181;BME280;70650;51.408;7.132;2024-03-07T08:53:56;101106.00;;;4.59;87.69
81181;BME280;70650;51.408;7.132;2024-03-07T08:56:21;101105.84;;;4.68;87.94
81181;BME280;70650;51.408;7.132;2024-03-07T08:58:48;101108.44;;;4.71;88.17
81181;BME280;70650;51.408;7.132;2024-03-07T09:01:13;101108.41;;;4.72;86.68
81181;BME280;70650;51.408;7.132;2024-03-07T09:03:38;101107.53;;;4.72;87.33
81181;BME280;70650;51.408;7.132;2024-03-07T09:06:04;101117.06;;;4.74;87.41
81181;BME280;70650;51.408;7.132;2024-03-07T09:08:31;101117.91;;;4.78;86.25
81181;BME280;70650;51.408;7.132;2024-03-07T09:10:57;101109.94;;;4.84;84.78
81181;BME280;70650;51.408;7.132;2024-03-07T09:13:23;101119.16;;;5.03;84.59
81181;BME280;70650;51.408;7.132;2024-03-07T09:15:48;101104.22;;;5.09;84.08
81181;BME280;70650;51.408;7.132;2024-03-07T09:18:13;101119.91;;;5.10;84.43
81181;BME280;70650;51.408;7.132;2024-03-07T09:20:40;101103.38;;;5.07;85.19
81181;BME280;70650;51.408;7.132;2024-03-07T09:23:05;101110.06;;;5.23;84.88
81181;BME280;70650;51.408;7.132;2024-03-07T09:25:31;101109.97;;;5.26;85.00
81181;BME280;70650;51.408;7.132;2024-03-07T09:27:59;101110.53;;;5.42;84.87
81181;BME280;70650;51.408;7.132;2024-03-07T09:30:26;101116.91;;;5.30;83.11
81181;BME280;70650;51.408;7.132;2024-03-07T09:32:53;101104.50;;;5.38;82.98
81181;BME280;70650;51.408;7.132;2024-03-07T09:35:20;101091.38;;;5.38;81.92
81181;BME280;70650;51.408;7.132;2024-03-07T09:37:46;101096.41;;;5.49;81.10
81181;BME280;70650;51.408;7.132;2024-03-07T09:40:11;101105.28;;;5.42;79.17
81181;BME280;70650;51.408;7.132;2024-03-07T09:45:14;101094.63;;;5.49;78.39
81181;BME280;70650;51.408;7.132;2024-03-07T09:47:42;101090.03;;;5.61;77.64
81181;BME280;70650;51.408;7.132;2024-03-07T09:50:09;101091.50;;;5.74;77.98
81181;BME280;70650;51.408;7.132;2024-03-07T09:52:35;101089.03;;;5.66;75.91
81181;BME280;70650;51.408;7.132;2024-03-07T09:55:01;101087.25;;;5.68;76.92
81181;BME280;70650;51.408;7.132;2024-03-07T09:57:26;101091.13;;;5.89;77.69
81181;BME280;70650;51.408;7.132;2024-03-07T09:59:53;101090.16;;;5.96;76.57
81181;BME280;70650;51.408;7.132;2024-03-07T10:02:20;101087.88;;;5.78;74.98
81181;BME280;70650;51.408;7.132;2024-03-07T10:04:48;101093.34;;;6.09;76.34
81181;BME280;70650;51.408;7.132;2024-03-07T10:07:16;101090.16;;;5.96;74.85
81181;BME280;70650;51.408;7.132;2024-03-07T10:09:41;101084.81;;;5.99;74.53
81181;BME280;70650;51.408;7.132;2024-03-07T10:12:08;101087.38;;;6.02;75.12
81181;BME280;70650;51.408;7.132;2024-03-07T10:14:38;101085.13;;;6.23;75.09
81181;BME280;70650;51.408;7.132;2024-03-07T10:17:04;101088.53;;;6.26;74.69
81181;BME280;70650;51.408;7.132;2024-03-07T10:19:29;101087.69;;;6.60;74.44
81181;BME280;70650;51.408;7.132;2024-03-07T10:21:56;101080.88;;;6.53;73.71
81181;BME280;70650;51.408;7.132;2024-03-07T10:24:27;101089.47;;;6.92;73.32
81181;BME280;70650;51.408;7.132;2024-03-07T10:26:54;101081.72;;;6.86;73.21
81181;BME280;70650;51.408;7.132;2024-03-07T10:29:21;101072.91;;;6.88;73.33
81181;BME280;70650;51.408;7.132;2024-03-07T10:31:49;101071.78;;;6.99;72.95
81181;BME280;70650;51.408;7.132;2024-03-07T10:34:15;101067.53;;;7.24;73.66
81181;BME280;70650;51.408;7.132;2024-03-07T10:36:42;101063.34;;;7.17;72.11
81181;BME280;70650;51.408;7.132;2024-03-07T10:39:08;101061.03;;;7.06;73.19
81181;BME280;70650;51.408;7.132;2024-03-07T10:41:46;101063.22;;;7.51;73.29
81181;BME280;70650;51.408;7.132;2024-03-07T10:44:26;101063.00;;;7.29;71.55
81181;BME280;70650;51.408;7.132;2024-03-07T10:46:55;101064.78;;;7.29;72.71
81181;BME280;70650;51.408;7.132;2024-03-07T10:49:21;101062.94;;;7.31;72.04
81181;BME280;70650;51.408;7.132;2024-03-07T10:52:13;101062.50;;;7.46;72.99
81181;BME280;70650;51.408;7.132;2024-03-07T10:55:04;101056.69;;;7.64;71.93
81181;BME280;70650;51.408;7.132;2024-03-07T11:00:06;101051.34;;;7.95;70.52
81181;BME280;70650;51.408;7.132;2024-03-07T11:02:51;101049.50;;;7.97;70.65
81181;BME280;70650;51.408;7.132;2024-03-07T11:05:19;101038.88;;;8.01;69.49
81181;BME280;70650;51.408;7.132;2024-03-07T11:07:49;101040.97;;;8.17;71.03
81181;BME280;70650;51.408;7.132;2024-03-07T11:10:15;101039.34;;;8.13;69.24
81181;BME280;70650;51.408;7.132;2024-03-07T11:12:44;101031.59;;;8.34;69.51
81181;BME280;70650;51.408;7.132;2024-03-07T11:15:12;101030.47;;;8.67;70.05
81181;BME280;70650;51.408;7.132;2024-03-07T11:17:44;101026.53;;;9.04;69.56
81181;BME280;70650;51.408;7.132;2024-03-07T11:22:46;101019.53;;;8.78;67.75
81181;BME280;70650;51.408;7.132;2024-03-07T11:25:11;101022.72;;;8.88;69.08
81181;BME280;70650;51.408;7.132;2024-03-07T11:27:37;101018.47;;;9.07;69.47
81181;BME280;70650;51.408;7.132;2024-03-07T11:30:08;101014.59;;;8.94;67.76
81181;BME280;70650;51.408;7.132;2024-03-07T11:32:39;101017.97;;;8.97;68.49
81181;BME280;70650;51.408;7.132;2024-03-07T11:35:11;101008.44;;;8.93;68.19
81181;BME280;70650;51.408;7.132;2024-03-07T11:37:43;101004.63;;;9.25;67.01
81181;BME280;70650;51.408;7.132;2024-03-07T11:40:12;101011.81;;;9.44;67.40
81181;BME280;70650;51.408;7.132;2024-03-07T11:42:45;101007.53;;;8.94;67.57
81181;BME280;70650;51.408;7.132;2024-03-07T11:45:14;101000.38;;;8.98;67.71
81181;BME280;70650;51.408;7.132;2024-03-07T11:47:59;100996.72;;;9.69;65.04
81181;BME280;70650;51.408;7.132;2024-03-07T11:50:39;100991.66;;;9.19;66.94
81181;BME280;70650;51.408;7.132;2024-03-07T11:53:06;100991.03;;;9.36;65.78
81181;BME280;70650;51.408;7.132;2024-03-07T11:55:32;100986.25;;;8.99;69.50
81181;BME280;70650;51.408;7.132;2024-03-07T11:58:14;100978.78;;;8.63;67.77
81181;BME280;70650;51.408;7.132;2024-03-07T12:00:42;100978.34;;;8.50;69.95
81181;BME280;70650;51.408;7.132;2024-03-07T12:03:19;100974.50;;;8.36;70.93
81181;BME280;70650;51.408;7.132;2024-03-07T12:05:50;100968.28;;;8.12;71.31
81181;BME280;70650;51.408;7.132;2024-03-07T12:08:22;100967.72;;;8.02;71.05
81181;BME280;70650;51.408;7.132;2024-03-07T12:10:48;100970.03;;;8.38;70.42
81181;BME280;70650;51.408;7.132;2024-03-07T12:13:20;100969.06;;;8.14;71.17
81181;BME280;70650;51.408;7.132;2024-03-07T12:15:46;100956.38;;;8.52;70.02
81181;BME280;70650;51.408;7.132;2024-03-07T12:18:12;100952.94;;;9.20;70.30
81181;BME280;70650;51.408;7.132;2024-03-07T12:20:42;100948.78;;;8.91;70.77
81181;BME280;70650;51.408;7.132;2024-03-07T12:23:12;100951.63;;;9.08;69.09
81181;BME280;70650;51.408;7.132;2024-03-07T12:25:38;100947.97;;;8.89;69.61
81181;BME280;70650;51.408;7.132;2024-03-07T12:28:09;100947.97;;;8.65;70.50
81181;BME280;70650;51.408;7.132;2024-03-07T12:30:49;100938.09;;;8.70;69.65
81181;BME280;70650;51.408;7.132;2024-03-07T12:33:15;100939.63;;;9.45;68.65
81181;BME280;70650;51.408;7.132;2024-03-07T12:35:42;100935.22;;;9.00;70.13
81181;BME280;70650;51.408;7.132;2024-03-07T12:38:09;100933.28;;;8.58;71.62
81181;BME280;70650;51.408;7.132;2024-03-07T12:40:40;100933.69;;;8.21;72.23
81181;BME280;70650;51.408;7.132;2024-03-07T12:43:18;100922.81;;;8.05;72.57
81181;BME280;70650;51.408;7.132;2024-03-07T12:45:51;100912.69;;;7.94;72.98
81181;BME280;70650;51.408;7.132;2024-03-07T12:48:18;100922.44;;;7.91;74.78
81181;BME280;70650;51.408;7.132;2024-03-07T12:50:48;100918.25;;;7.85;73.33
81181;BME280;70650;51.408;7.132;2024-03-07T12:53:23;100912.56;;;7.97;73.75
81181;BME280;70650;51.408;7.132;2024-03-07T12:55:50;100913.00;;;8.10;73.79
81181;BME280;70650;51.408;7.132;2024-03-07T12:58:17;100913.59;;;8.18;73.67
81181;BME280;70650;51.408;7.132;2024-03-07T13:00:43;100902.38;;;8.13;72.33
81181;BME280;70650;51.408;7.132;2024-03-07T13:03:09;100912.59;;;8.22;73.08
81181;BME280;70650;51.408;7.132;2024-03-07T13:05:40;100909.06;;;7.97;72.67
81181;BME280;70650;51.408;7.132;2024-03-07T13:08:08;100908.69;;;8.08;73.35